FQTT

Chingozi Airport

Tete, Mozambique
METAR FQTT 170100Z 00000KT 9999 SCT020 25/24 Q1015
Observed Flight Rules
Dec-17 @ 01:00 UTC (36 minutes ago) Visual Flight Rules
Visibility Clouds
10,000+ meters
  • Scattered at 2,000' AGL
Temperatures Readings
Current 25°C / 77°F
Dewpoint 24°C / 75°F
Humidity 94%
Altimeter 29.97" Hg
Pressure 1015 hPa
Elevation 160
METAR FQTT 170100Z 00000KT 9999 SCT020 25/24 Q1015
Observed Flight Rules
Dec-17 @ 01:00 UTC
(36 minutes ago)
VFR
Clouds
  • Scattered at 2,000' AGL
Temperature Dewpoint
25°C / 77°F 24°C / 75°F
Humidity Altimeter Pressure
94% 29.97" Hg 1015 hPa